Nichols, Wisconsin
Current Conditions -  °F | °C
As of 8:15 AM on Thursday 27 Nov 2014 (Local Time) from KCLI Reporting Station
Overcast Overcast  
Wind Chill:   Ceiling: 5000
Heat Index: 18°   Visibility: 10mi
Dew Point:   Wind: 12mph
Humidity: 68%   Direction: 360°N
Pressure: 30.33"   Gusts: 17mph
Location:  44.56°N, 88.46°W
Report Text: KCLI 271415Z AUTO 36010G15KT 10SM SCT018 OVC050 M08/M13 A3033 RMK AO2
Loading
Personal Weather Stations






























Interactive Weather Map New forecast layout! Learn more

10-Day Weather Forecast

Advertisements
Track Severe Weather on mobile